HA340 / N492HA 7700 Squawk Report (7th of December, 2021)

Aircraft B712 Reg No. N492HA Age 17 years old
Model 717 Jet engines 2 First flight 27-08-04
Registered 07-03-12 Rollout 08-04 Delivered 07-09-04
Construction No. 55181 Line No. 5135 Series 2BL
ADSHEX A61836 Airline name Hawaiian Airlines Owner Wells Fargo Trust Co NA Trustee
Airfield based Honolulu International~HI~N First tracked N/A

Flight history for N492HA

Route Flight No Date Playback
Lihue (LIH) - Daniel K. Inouye International (HNL) HA234 2022-01-20 22:59:00
Kahului (OGG) - Lihue (LIH) HA149 2022-01-20 21:42:00
Daniel K. Inouye International (HNL) - Kahului (OGG) HA216 2022-01-20 21:08:00
Kahului (OGG) - Daniel K. Inouye International (HNL) HA145 2022-01-20 19:53:00
Daniel K. Inouye International (HNL) - Kahului (OGG) HA146 2022-01-20 17:51:00
Kahului (OGG) - Daniel K. Inouye International (HNL) HA105 2022-01-20 17:22:00
Daniel K. Inouye International (HNL) - Kahului (OGG) HA576 2022-01-20 07:28:00
Kahului (OGG) - Daniel K. Inouye International (HNL) HA535 2022-01-20 06:57:00
Daniel K. Inouye International (HNL) - Kahului (OGG) HA526 2022-01-20 04:58:00
Kona Intl At Keahole (KOA) - Daniel K. Inouye International (HNL) HA347 2022-01-20 03:28:00
Daniel K. Inouye International (HNL) - Kona Intl At Keahole (KOA) HA358 2022-01-20 02:21:00
Kona Intl At Keahole (KOA) - Daniel K. Inouye International (HNL) HA277 2022-01-20 01:30:00
Daniel K. Inouye International (HNL) - Kona Intl At Keahole (KOA) HA278 2022-01-19 23:49:00
Kona Intl At Keahole (KOA) - Daniel K. Inouye International (HNL) HA197 2022-01-19 22:35:00
Daniel K. Inouye International (HNL) - Kona Intl At Keahole (KOA) HA208 2022-01-19 20:17:00
Kona Intl At Keahole (KOA) - Daniel K. Inouye International (HNL) HA137 2022-01-19 18:31:00
Daniel K. Inouye International (HNL) - Kona Intl At Keahole (KOA) HA138 2022-01-19 17:22:00
Kahului (OGG) - Daniel K. Inouye International (HNL) HA555 2022-01-19 16:43:00
Daniel K. Inouye International (HNL) - Kahului (OGG) HA556 2022-01-19 06:03:00
Hilo Intl (ITO) - Daniel K. Inouye International (HNL) HA371 2022-01-19 04:52:00
Time Lat Lon Altitude Heading Speed Vertical Rate
2021-12-07 02:12:54 GMT 20.893377 -156.436462 0 303 0 0
2021-12-07 02:12:35 GMT 20.893375 -156.436462 0 303 0 0
2021-12-07 02:12:24 GMT 20.893377 -156.436462 0 303 0 0
2021-12-07 02:12:00 GMT 20.893375 -156.436462 0 303 0 0
2021-12-07 02:10:50 GMT 20.893377 -156.436462 0 303 0 0
2021-12-07 02:10:38 GMT 20.893375 -156.436462 0 303 0 0
2021-12-07 02:10:28 GMT 20.893377 -156.436462 0 303 0 0
2021-12-07 02:10:18 GMT 20.893375 -156.436462 0 303 0 0
2021-12-07 02:10:07 GMT 20.893341 -156.436417 0 303 4 0
2021-12-07 02:09:57 GMT 20.893169 -156.436142 0 295 9 0
2021-12-07 02:09:46 GMT 20.893110 -156.435699 0 253 10 0
2021-12-07 02:09:36 GMT 20.893238 -156.435272 0 247 8 0
2021-12-07 02:09:25 GMT 20.893353 -156.434998 0 236 5 0
2021-12-07 02:09:14 GMT 20.893423 -156.434891 0 230 2 0
2021-12-07 02:09:04 GMT 20.893467 -156.434814 0 225 3 0
2021-12-07 02:08:52 GMT 20.893553 -156.434723 0 219 4 0
2021-12-07 02:08:43 GMT 20.893703 -156.434586 0 216 6 0
2021-12-07 02:08:32 GMT 20.893948 -156.434402 0 216 7 0
2021-12-07 02:08:20 GMT 20.894279 -156.434143 0 216 10 0
2021-12-07 02:08:11 GMT 20.894682 -156.433838 0 213 13 0
2021-12-07 02:08:00 GMT 20.895229 -156.433426 0 216 15 0
2021-12-07 02:07:50 GMT 20.895847 -156.432968 0 213 17 0
2021-12-07 02:07:39 GMT 20.896530 -156.432449 0 216 17 0
2021-12-07 02:07:27 GMT 20.897186 -156.431961 0 213 16 0
2021-12-07 02:07:18 GMT 20.897770 -156.431534 0 213 15 0
2021-12-07 02:07:06 GMT 20.898342 -156.431107 0 213 13 0
2021-12-07 02:06:56 GMT 20.898825 -156.430740 0 213 13 0
2021-12-07 02:06:45 GMT 20.899290 -156.430405 0 213 12 0
2021-12-07 02:06:35 GMT 20.899710 -156.430099 0 216 11 0
2021-12-07 02:06:25 GMT 20.900116 -156.429703 0 250 12 0
2021-12-07 02:06:14 GMT 20.900105 -156.429108 0 306 12 0
2021-12-07 02:06:04 GMT 20.899710 -156.428787 0 351 10 0
2021-12-07 02:05:52 GMT 20.899279 -156.428833 0 33 9 0
2021-12-07 02:05:42 GMT 20.898964 -156.429062 0 33 8 0
2021-12-07 02:05:32 GMT 20.898708 -156.429245 0 33 5 0
2021-12-07 02:05:08 GMT 20.898603 -156.429321 0 33 0 0
2021-12-07 02:04:47 GMT 20.898594 -156.429321 0 33 0 0
2021-12-07 02:04:38 GMT 20.898603 -156.429321 0 33 0 0
2021-12-07 02:04:27 GMT 20.898594 -156.429321 0 33 0 0
2021-12-07 02:04:13 GMT 20.898603 -156.429321 0 33 0 0
2021-12-07 02:04:02 GMT 20.898594 -156.429321 0 33 0 0
2021-12-07 02:03:52 GMT 20.898603 -156.429321 0 33 0 0
2021-12-07 02:03:43 GMT 20.898594 -156.429321 0 33 0 0
2021-12-07 02:03:32 GMT 20.898605 -156.429321 0 33 0 0
2021-12-07 02:03:25 GMT 20.898603 -156.429321 0 33 0 0
2021-12-07 02:03:13 GMT 20.898605 -156.429321 0 33 0 0
2021-12-07 02:03:03 GMT 20.898594 -156.429321 75 33 3 0
2021-12-07 02:02:53 GMT 20.897346 -156.430237 75 35 67 -64
2021-12-07 02:02:41 GMT 20.893156 -156.433380 100 35 139 -64
2021-12-07 02:02:32 GMT 20.887527 -156.437561 175 35 147 -768
2021-12-07 02:02:21 GMT 20.881659 -156.441971 300 35 149 -768
2021-12-07 02:02:09 GMT 20.875168 -156.446838 450 35 151 -768
2021-12-07 02:02:00 GMT 20.869354 -156.451157 575 34 151 -896
2021-12-07 02:01:49 GMT 20.862759 -156.455994 750 35 150 -832
2021-12-07 02:01:38 GMT 20.856752 -156.460693 875 35 149 -704
2021-12-07 02:01:26 GMT 20.850632 -156.465225 1,000 34 148 -704
2021-12-07 02:01:16 GMT 20.844727 -156.469543 1,125 35 147 -704
2021-12-07 02:01:06 GMT 20.838547 -156.474106 1,275 33 154 -704
2021-12-07 02:00:54 GMT 20.832033 -156.478821 1,400 34 163 -896
2021-12-07 02:00:45 GMT 20.825272 -156.483856 1,575 35 173 -1024
2021-12-07 02:00:33 GMT 20.817974 -156.489258 1,750 35 183 -960
2021-12-07 02:00:23 GMT 20.810619 -156.494858 1,925 35 197 -960
2021-12-07 02:00:13 GMT 20.802193 -156.501297 2,100 35 210 -1024
2021-12-07 02:00:02 GMT 20.793814 -156.507629 2,250 34 223 -832
2021-12-07 01:59:52 GMT 20.784668 -156.514374 2,425 34 234 -1088
2021-12-07 01:59:40 GMT 20.774261 -156.521912 2,675 33 250 -1472
2021-12-07 01:59:29 GMT 20.763931 -156.529282 2,975 33 253 -1792
2021-12-07 01:59:20 GMT 20.754105 -156.536499 3,275 36 256 -1792
2021-12-07 01:59:11 GMT 20.745726 -156.543198 3,550 38 257 -1536
2021-12-07 01:59:08 GMT 20.744019 -156.544586 3,600 38 258 -1344
2021-12-07 01:58:59 GMT 20.734041 -156.553680 3,750 42 268 -384
2021-12-07 01:58:48 GMT 20.725010 -156.563065 3,950 47 273 -1600
2021-12-07 01:58:37 GMT 20.717239 -156.574890 4,275 68 269 -1728
2021-12-07 01:58:26 GMT 20.713930 -156.589035 4,625 88 264 -1728
2021-12-07 01:58:15 GMT 20.714996 -156.602951 4,925 100 263 -1408
2021-12-07 01:58:06 GMT 20.717281 -156.615402 5,175 101 265 -1728
2021-12-07 01:58:03 GMT 20.717794 -156.618103 5,250 101 266 -1600
2021-12-07 01:57:55 GMT 20.719936 -156.629440 5,475 101 268 -1664
2021-12-07 01:57:52 GMT 20.720354 -156.631775 5,525 100 267 -1728
2021-12-07 01:57:44 GMT 20.722357 -156.643372 5,800 99 268 -1792
2021-12-07 01:57:41 GMT 20.722870 -156.646500 5,875 99 268 -1920
2021-12-07 01:57:34 GMT 20.724636 -156.657394 6,150 99 268 -1728
2021-12-07 01:57:30 GMT 20.725113 -156.660385 6,225 99 269 -1664
2021-12-07 01:57:22 GMT 20.726826 -156.671036 6,475 99 269 -1984
2021-12-07 01:57:19 GMT 20.727476 -156.675079 6,575 99 268 -2112
2021-12-07 01:57:12 GMT 20.729013 -156.685059 6,750 99 273 -704
2021-12-07 01:57:09 GMT 20.729645 -156.689072 6,800 99 274 -1152
2021-12-07 01:57:02 GMT 20.731247 -156.699524 7,000 99 275 -1792
2021-12-07 01:56:58 GMT 20.731899 -156.703690 7,100 99 275 -1600
2021-12-07 01:56:51 GMT 20.733490 -156.713791 7,300 99 277 -1664
2021-12-07 01:56:47 GMT 20.734131 -156.717712 7,375 99 278 -1728
2021-12-07 01:56:41 GMT 20.735733 -156.728302 7,575 99 279 -1472
2021-12-07 01:56:36 GMT 20.736420 -156.732819 7,650 99 279 -1728
2021-12-07 01:56:29 GMT 20.737930 -156.742386 7,900 99 279 -2176
2021-12-07 01:56:25 GMT 20.738695 -156.747543 8,025 99 278 -2112
2021-12-07 01:56:19 GMT 20.740219 -156.756958 8,225 100 280 -1536
2021-12-07 01:56:15 GMT 20.741117 -156.762222 8,325 101 280 -1536
2021-12-07 01:56:09 GMT 20.743149 -156.771225 8,525 107 277 -1792
2021-12-07 01:56:04 GMT 20.744747 -156.776154 8,625 112 275 -1792
2021-12-07 01:55:57 GMT 20.748596 -156.785156 8,850 115 275 -1728
2021-12-07 01:55:54 GMT 20.750381 -156.789169 8,925 115 275 -1728
2021-12-07 01:55:48 GMT 20.754089 -156.797409 9,125 115 275 -1792
2021-12-07 01:55:42 GMT 20.756945 -156.803665 9,275 115 276 -1664
2021-12-07 01:55:37 GMT 20.759876 -156.810165 9,400 115 277 -1600
2021-12-07 01:55:31 GMT 20.762764 -156.816452 9,550 115 277 -1600
2021-12-07 01:55:26 GMT 20.766115 -156.823837 9,700 115 279 -1472
2021-12-07 01:55:20 GMT 20.768829 -156.829834 9,825 116 279 -1536
2021-12-07 01:55:16 GMT 20.772171 -156.836990 9,950 116 280 -1408
2021-12-07 01:55:09 GMT 20.775240 -156.843460 10,075 117 281 -1344
2021-12-07 01:55:04 GMT 20.778671 -156.850525 10,225 117 283 -1664
2021-12-07 01:54:59 GMT 20.781509 -156.856369 10,375 117 283 -2112
2021-12-07 01:54:54 GMT 20.784691 -156.863098 10,575 116 282 -2304
2021-12-07 01:54:48 GMT 20.787994 -156.870087 10,800 116 280 -2304
2021-12-07 01:54:44 GMT 20.790985 -156.876373 10,975 116 280 -1856
2021-12-07 01:54:37 GMT 20.794235 -156.883148 11,150 117 279 -1792
2021-12-07 01:54:32 GMT 20.797398 -156.889664 11,300 116 280 -1792
2021-12-07 01:54:26 GMT 20.800781 -156.896835 11,450 116 282 -1216
2021-12-07 01:54:22 GMT 20.803730 -156.903244 11,525 116 283 -768
2021-12-07 01:54:15 GMT 20.807098 -156.910568 11,600 116 286 -832
2021-12-07 01:54:12 GMT 20.809616 -156.916016 11,650 116 287 -768
2021-12-07 01:54:04 GMT 20.813553 -156.924561 11,725 116 289 -832
2021-12-07 01:54:01 GMT 20.815933 -156.929749 11,800 115 290 -832
2021-12-07 01:53:54 GMT 20.819778 -156.938278 11,875 115 292 -640
2021-12-07 01:53:51 GMT 20.822304 -156.943741 11,900 115 295 -384
2021-12-07 01:53:43 GMT 20.826096 -156.952148 11,925 115 298 -128
2021-12-07 01:53:39 GMT 20.828634 -156.957779 11,925 115 303 -192
2021-12-07 01:53:32 GMT 20.832731 -156.966721 11,950 116 309 -192
2021-12-07 01:53:29 GMT 20.835152 -156.972061 11,950 116 310 -192
2021-12-07 01:53:22 GMT 20.839600 -156.981628 11,975 116 317 -64
2021-12-07 01:53:18 GMT 20.842648 -156.988083 11,975 116 321 -128
2021-12-07 01:53:11 GMT 20.846697 -156.996826 12,025 116 327 -704
2021-12-07 01:53:06 GMT 20.850515 -157.004959 12,150 116 329 -1408
2021-12-07 01:52:58 GMT 20.856520 -157.017807 12,375 116 331 -1664
2021-12-07 01:52:49 GMT 20.861618 -157.028870 12,575 116 332 -1664
2021-12-07 01:52:46 GMT 20.863642 -157.033279 12,650 115 333 -1664
2021-12-07 01:52:36 GMT 20.871138 -157.049805 12,950 115 336 -1600
2021-12-07 01:52:26 GMT 20.878166 -157.065445 13,225 115 339 -1472
2021-12-07 01:52:15 GMT 20.885193 -157.080856 13,475 115 341 -1600
2021-12-07 01:52:05 GMT 20.892412 -157.096848 13,800 115 342 -1856
2021-12-07 01:51:54 GMT 20.899567 -157.112778 14,075 115 345 -1344
2021-12-07 01:51:44 GMT 20.906982 -157.129303 14,350 115 347 -1472
2021-12-07 01:51:33 GMT 20.914490 -157.145889 14,625 115 349 -1856
2021-12-07 01:51:22 GMT 20.922043 -157.162567 14,975 115 349 -2048
2021-12-07 01:51:12 GMT 20.929607 -157.179001 15,300 116 350 -1664
2021-12-07 01:51:01 GMT 20.937103 -157.195221 15,550 116 353 -1344
2021-12-07 01:50:50 GMT 20.945343 -157.213135 15,875 116 355 -1984
2021-12-07 01:50:40 GMT 20.952929 -157.229538 16,175 116 356 -1728
2021-12-07 01:50:28 GMT 20.960424 -157.245865 16,500 116 357 -1856
2021-12-07 01:50:19 GMT 20.968338 -157.263000 16,800 116 357 -1792
2021-12-07 01:50:07 GMT 20.976700 -157.281113 17,175 116 358 -1984
2021-12-07 01:50:05 GMT 20.978161 -157.284317 17,250 116 359 -1792
2021-12-07 01:50:02 GMT 20.980303 -157.288910 17,325 116 359 -1792
2021-12-07 01:50:01 GMT 20.981047 -157.290512 17,350 116 359 -1792
2021-12-07 01:50:00 GMT 20.981792 -157.292114 17,375 115 360 -1792
2021-12-07 01:49:57 GMT 20.984026 -157.297104 17,475 115 360 -1856
2021-12-07 01:49:56 GMT 20.984711 -157.298523 17,500 115 360 -1856
2021-12-07 01:49:55 GMT 20.985470 -157.300293 17,550 115 360 -1856
2021-12-07 01:49:52 GMT 20.987612 -157.304947 17,625 115 361 -1728
2021-12-07 01:49:51 GMT 20.988310 -157.306595 17,650 115 361 -1728
2021-12-07 01:49:50 GMT 20.989014 -157.308182 17,675 115 362 -1664
2021-12-07 01:49:49 GMT 20.990543 -157.311584 17,750 115 361 -1664
2021-12-07 01:49:45 GMT 20.992722 -157.316422 17,825 115 362 -1664
2021-12-07 01:49:44 GMT 20.993477 -157.318222 17,850 115 362 -1664
2021-12-07 01:49:43 GMT 20.994221 -157.319824 17,875 115 363 -1728
2021-12-07 01:49:41 GMT 20.995710 -157.323273 17,950 115 363 -1792
2021-12-07 01:49:40 GMT 20.996384 -157.324707 17,975 115 363 -1792
2021-12-07 01:49:39 GMT 20.997116 -157.326324 18,000 115 364 -1728
2021-12-07 01:49:37 GMT 21.000549 -157.334167 18,100 115 365 -1600
2021-12-07 01:49:33 GMT 21.000549 -157.334167 18,125 115 365 -1600
2021-12-07 01:49:28 GMT 21.004183 -157.342346 18,275 115 365 -1664
2021-12-07 01:49:27 GMT 21.005487 -157.345291 18,325 115 367 -1856
2021-12-07 01:49:26 GMT 21.006226 -157.346924 18,350 115 366 -2048
2021-12-07 01:49:23 GMT 21.007582 -157.350037 18,425 115 366 -2240
2021-12-07 01:49:22 GMT 21.008240 -157.351532 18,450 115 366 -2240
2021-12-07 01:49:20 GMT 21.009863 -157.355133 18,525 115 367 -2304
2021-12-07 01:49:19 GMT 21.010561 -157.356781 18,575 115 367 -2368
2021-12-07 01:49:18 GMT 21.011307 -157.358398 18,625 115 367 -2432
2021-12-07 01:49:16 GMT 21.013540 -157.363525 18,750 115 366 -2496
2021-12-07 01:49:14 GMT 21.015078 -157.366913 18,825 115 366 -2432
2021-12-07 01:49:11 GMT 21.016659 -157.370560 18,925 115 367 -2304
2021-12-07 01:49:10 GMT 21.017441 -157.372375 18,975 115 367 -2304
2021-12-07 01:49:09 GMT 21.018196 -157.374008 19,000 115 367 -2240
2021-12-07 01:49:08 GMT 21.020336 -157.378952 19,125 115 368 -2304
2021-12-07 01:49:06 GMT 21.020336 -157.378952 19,125 115 368 -2304
2021-12-07 01:49:04 GMT 21.021973 -157.382584 19,200 115 369 -2240
2021-12-07 01:49:02 GMT 21.023315 -157.385696 19,275 115 369 -2176
2021-12-07 01:49:01 GMT 21.025360 -157.390335 19,375 115 369 -2240
2021-12-07 01:48:58 GMT 21.026016 -157.391830 19,400 115 369 -2176
2021-12-07 01:48:57 GMT 21.026917 -157.393814 19,450 115 370 -2112
2021-12-07 01:48:56 GMT 21.028336 -157.397156 19,525 115 370 -2048
2021-12-07 01:48:54 GMT 21.029251 -157.399109 19,550 114 371 -2048
2021-12-07 01:48:53 GMT 21.030672 -157.402451 19,625 114 371 -2048
2021-12-07 01:48:51 GMT 21.031418 -157.404129 19,650 114 373 -2048
2021-12-07 01:48:49 GMT 21.032730 -157.407166 19,725 114 373 -2048
2021-12-07 01:48:48 GMT 21.033463 -157.408813 19,750 114 373 -2048
2021-12-07 01:48:47 GMT 21.034117 -157.410324 19,775 114 374 -2048
2021-12-07 01:48:46 GMT 21.034973 -157.412354 19,825 114 374 -2112
2021-12-07 01:48:45 GMT 21.035706 -157.414001 19,875 114 374 -2112
2021-12-07 01:48:42 GMT 21.037888 -157.419083 19,975 114 376 -2048
2021-12-07 01:48:40 GMT 21.039330 -157.422485 20,025 114 377 -1984
2021-12-07 01:48:38 GMT 21.040819 -157.426041 20,100 114 378 -2048
2021-12-07 01:48:37 GMT 21.041517 -157.427780 20,150 114 378 -1984
2021-12-07 01:48:35 GMT 21.042892 -157.430984 20,200 114 378 -1984
2021-12-07 01:48:34 GMT 21.043753 -157.433060 20,250 114 379 -1984
2021-12-07 01:48:33 GMT 21.044498 -157.434738 20,275 114 379 -2048
2021-12-07 01:48:32 GMT 21.045103 -157.436111 20,300 114 379 -2048
2021-12-07 01:48:31 GMT 21.045822 -157.437820 20,350 114 379 -2048
2021-12-07 01:48:29 GMT 21.047197 -157.441101 20,400 114 380 -2112
2021-12-07 01:48:27 GMT 21.048843 -157.444824 20,500 115 380 -2048
2021-12-07 01:48:26 GMT 21.049622 -157.446518 20,525 115 381 -1984
2021-12-07 01:48:25 GMT 21.051805 -157.451477 20,600 115 381 -1600
2021-12-07 01:48:22 GMT 21.052734 -157.453552 20,650 115 382 -1600
2021-12-07 01:48:21 GMT 21.053389 -157.455093 20,675 115 382 -1792
2021-12-07 01:48:20 GMT 21.054840 -157.458298 20,750 115 382 -1984
2021-12-07 01:48:18 GMT 21.055710 -157.460205 20,775 115 382 -2048
2021-12-07 01:48:16 GMT 21.057392 -157.463943 20,850 115 382 -2112
2021-12-07 01:48:14 GMT 21.058929 -157.467346 20,925 115 381 -2048
2021-12-07 01:48:12 GMT 21.060465 -157.470749 21,000 115 382 -1856
2021-12-07 01:48:11 GMT 21.061249 -157.472488 21,025 115 382 -1728
2021-12-07 01:48:10 GMT 21.063263 -157.476883 21,100 115 381 -1920
2021-12-07 01:48:06 GMT 21.065506 -157.481827 21,200 115 381 -1856
2021-12-07 01:48:05 GMT 21.066284 -157.483521 21,250 115 381 -1792
2021-12-07 01:48:03 GMT 21.067820 -157.486877 21,300 115 381 -1728
2021-12-07 01:48:02 GMT 21.068611 -157.488602 21,325 115 381 -1664
2021-12-07 01:48:00 GMT 21.069901 -157.491455 21,375 115 380 -1792
2021-12-07 01:47:59 GMT 21.071960 -157.496048 21,475 115 381 -1856
2021-12-07 01:47:55 GMT 21.072802 -157.497910 21,500 115 381 -1856
2021-12-07 01:47:54 GMT 21.073593 -157.499649 21,525 115 381 -1920
2021-12-07 01:47:53 GMT 21.074524 -157.501648 21,575 115 381 -1920
2021-12-07 01:47:52 GMT 21.075119 -157.503052 21,600 115 381 -1920
2021-12-07 01:47:49 GMT 21.077682 -157.508636 21,700 115 381 -1920
2021-12-07 01:47:45 GMT 21.080763 -157.515411 21,825 115 382 -1792
2021-12-07 01:47:42 GMT 21.083183 -157.520706 21,900 116 382 -1856
2021-12-07 01:47:38 GMT 21.087708 -157.530563 22,100 115 383 -1920
2021-12-07 01:47:33 GMT 21.090591 -157.536911 22,200 116 385 -1984
2021-12-07 01:47:29 GMT 21.093889 -157.544098 22,325 116 384 -1408
2021-12-07 01:47:23 GMT 21.098684 -157.554672 22,500 115 385 -1856
2021-12-07 01:47:19 GMT 21.102316 -157.562759 22,650 115 386 -1792
2021-12-07 01:47:12 GMT 21.106785 -157.572586 22,800 115 387 -1728
2021-12-07 01:47:02 GMT 21.114807 -157.590240 23,100 115 390 -1856
2021-12-07 01:46:57 GMT 21.118607 -157.598770 23,275 115 391 -2112
2021-12-07 01:46:51 GMT 21.122864 -157.608215 23,475 115 392 -2368
2021-12-07 01:46:47 GMT 21.127455 -157.618561 23,725 115 392 -2496
2021-12-07 01:46:42 GMT 21.130806 -157.625885 23,900 115 391 -2432
2021-12-07 01:46:36 GMT 21.135269 -157.635834 24,125 115 390 -1984
2021-12-07 01:46:32 GMT 21.138254 -157.642410 24,200 115 390 -1664
2021-12-07 01:46:29 GMT 21.140213 -157.646774 24,275 115 389 -1664
2021-12-07 01:46:22 GMT 21.146255 -157.660294 24,475 115 385 -1408
2021-12-07 01:46:19 GMT 21.148310 -157.664795 24,525 115 385 -1088
2021-12-07 01:46:15 GMT 21.152407 -157.673904 24,600 115 385 -1152
2021-12-07 01:46:11 GMT 21.154640 -157.678879 24,675 115 384 -1088
2021-12-07 01:46:08 GMT 21.157013 -157.684021 24,725 115 385 -1280
2021-12-07 01:46:02 GMT 21.161997 -157.695007 24,850 115 388 -896
2021-12-07 01:45:56 GMT 21.165894 -157.703445 24,925 115 389 -1024
2021-12-07 01:45:53 GMT 21.169235 -157.710892 24,975 115 389 -576
2021-12-07 01:45:50 GMT 21.170380 -157.713333 24,975 115 389 -448
2021-12-07 01:45:44 GMT 21.176102 -157.725983 25,025 115 390 -64
2021-12-07 01:45:41 GMT 21.178011 -157.730148 25,025 115 390 192
2021-12-07 01:45:36 GMT 21.182106 -157.739212 24,975 115 391 0
2021-12-07 01:45:33 GMT 21.185394 -157.746536 25,025 115 392 -384
2021-12-07 01:45:30 GMT 21.186436 -157.748825 25,000 115 392 -320
2021-12-07 01:45:24 GMT 21.190979 -157.759033 25,025 115 394 -192
2021-12-07 01:45:20 GMT 21.194582 -157.767181 25,050 115 396 256
2021-12-07 01:45:11 GMT 21.202402 -157.784683 25,000 115 394 128
2021-12-07 01:45:03 GMT 21.207895 -157.796829 25,000 115 395 0
2021-12-07 01:44:59 GMT 21.210754 -157.803177 25,000 115 395 192
2021-12-07 01:44:50 GMT 21.218765 -157.821045 25,000 115 397 0
2021-12-07 01:44:40 GMT 21.226610 -157.838852 25,000 114 398 128
2021-12-07 01:44:30 GMT 21.234385 -157.856705 25,000 115 397 0
2021-12-07 01:44:20 GMT 21.242531 -157.875015 25,025 115 397 -64
2021-12-07 01:44:15 GMT 21.245649 -157.881927 25,025 115 397 0
2021-12-07 01:44:10 GMT 21.250763 -157.893265 25,025 115 397 -64
2021-12-07 01:44:06 GMT 21.253471 -157.899323 25,025 115 398 64
2021-12-07 01:44:00 GMT 21.258774 -157.911087 25,025 115 398 -64
2021-12-07 01:43:57 GMT 21.260284 -157.914429 25,025 115 399 -64
2021-12-07 01:43:48 GMT 21.267563 -157.930511 25,025 115 400 0
2021-12-07 01:43:39 GMT 21.274841 -157.946594 25,025 115 401 -64
2021-12-07 01:43:36 GMT 21.277176 -157.951782 25,000 115 401 -64
2021-12-07 01:43:29 GMT 21.283310 -157.965378 25,025 115 401 -64
2021-12-07 01:43:26 GMT 21.285324 -157.969864 25,025 115 401 0
2021-12-07 01:43:18 GMT 21.292109 -157.985031 25,025 115 399 0
2021-12-07 01:43:15 GMT 21.294437 -157.990219 25,025 115 393 0
2021-12-07 01:43:08 GMT 21.299557 -158.001755 25,025 115 395 0
2021-12-07 01:43:04 GMT 21.302856 -158.009171 25,025 115 394 64
2021-12-07 01:42:58 GMT 21.307480 -158.019348 25,025 115 394 -64
2021-12-07 01:42:53 GMT 21.311691 -158.028687 25,025 115 393 -64
2021-12-07 01:42:47 GMT 21.316502 -158.039444 25,025 115 393 0
2021-12-07 01:42:43 GMT 21.319529 -158.046310 25,025 115 393 64
2021-12-07 01:42:37 GMT 21.324463 -158.057404 25,025 115 393 0
2021-12-07 01:42:31 GMT 21.328747 -158.067062 25,000 115 393 -64
2021-12-07 01:42:27 GMT 21.331818 -158.073929 25,000 115 393 -128
2021-12-07 01:42:21 GMT 21.336914 -158.085373 25,000 115 393 -64
2021-12-07 01:42:17 GMT 21.340302 -158.092957 25,000 115 394 64
2021-12-07 01:42:10 GMT 21.345692 -158.104706 25,000 115 395 0
2021-12-07 01:42:06 GMT 21.348450 -158.110886 25,000 115 396 -128
2021-12-07 01:41:59 GMT 21.354401 -158.124023 25,000 115 397 128
2021-12-07 01:41:55 GMT 21.357056 -158.129868 25,000 115 398 64
2021-12-07 01:41:51 GMT 21.360809 -158.138199 25,000 115 398 128
2021-12-07 01:41:48 GMT 21.362915 -158.142853 25,000 115 398 128
2021-12-07 01:41:45 GMT 21.365387 -158.148392 25,000 115 398 128
2021-12-07 01:41:41 GMT 21.369598 -158.157883 25,000 115 401 0
2021-12-07 01:41:35 GMT 21.373623 -158.167007 25,000 114 402 128
2021-12-07 01:41:25 GMT 21.381304 -158.184769 25,000 115 403 -64
2021-12-07 01:41:13 GMT 21.390055 -158.204498 24,975 115 404 64
2021-12-07 01:41:04 GMT 21.397751 -158.222107 25,000 115 402 -192
2021-12-07 01:40:53 GMT 21.406906 -158.242905 25,025 115 398 64
2021-12-07 01:40:48 GMT 21.411610 -158.253433 25,025 115 398 -192
2021-12-07 01:40:44 GMT 21.414505 -158.259857 25,050 115 400 -256
2021-12-07 01:40:42 GMT 21.415194 -158.261520 25,025 115 402 -192
2021-12-07 01:40:37 GMT 21.420410 -158.273193 25,025 115 405 128
2021-12-07 01:40:34 GMT 21.422241 -158.277176 25,025 115 404 64
2021-12-07 01:40:31 GMT 21.423992 -158.281143 25,025 115 406 0
2021-12-07 01:40:24 GMT 21.430756 -158.296204 25,025 115 404 64
2021-12-07 01:40:20 GMT 21.433023 -158.301285 25,025 115 403 64
2021-12-07 01:40:11 GMT 21.440002 -158.316940 25,025 115 401 -64
2021-12-07 01:40:09 GMT 21.441696 -158.320724 25,000 115 401 0
2021-12-07 01:40:03 GMT 21.446802 -158.332016 25,000 115 399 -64
2021-12-07 01:39:59 GMT 21.450386 -158.339996 25,025 115 397 0
2021-12-07 01:39:53 GMT 21.454880 -158.349945 25,025 115 394 128
2021-12-07 01:39:48 GMT 21.459045 -158.359283 25,000 115 392 -64
2021-12-07 01:39:43 GMT 21.467379 -158.377884 25,025 115 391 0
2021-12-07 01:39:37 GMT 21.467379 -158.377884 25,000 115 391 -128
2021-12-07 01:39:33 GMT 21.470682 -158.385422 25,025 115 392 -128
2021-12-07 01:39:26 GMT 21.475664 -158.396713 25,025 115 393 -128
2021-12-07 01:39:23 GMT 21.479156 -158.404648 25,025 115 394 0
2021-12-07 01:39:13 GMT 21.486465 -158.421097 25,025 115 396 0
2021-12-07 01:39:09 GMT 21.489578 -158.428040 25,025 115 395 0
2021-12-07 01:39:03 GMT 21.494844 -158.439896 25,025 115 395 0
2021-12-07 01:38:53 GMT 21.502199 -158.456467 25,025 115 391 128
2021-12-07 01:38:48 GMT 21.506241 -158.465591 25,000 115 386 192
2021-12-07 01:38:42 GMT 21.510765 -158.475906 25,000 115 386 192
2021-12-07 01:38:39 GMT 21.512953 -158.480942 24,975 115 386 128
2021-12-07 01:38:32 GMT 21.518188 -158.492722 24,975 115 386 -64
2021-12-07 01:38:28 GMT 21.521706 -158.500671 25,000 115 386 0
2021-12-07 01:38:22 GMT 21.526127 -158.510696 25,000 115 386 0
2021-12-07 01:38:18 GMT 21.528397 -158.515884 25,025 115 385 0
2021-12-07 01:38:10 GMT 21.535080 -158.531174 25,025 115 384 64
2021-12-07 01:38:02 GMT 21.541536 -158.545837 25,025 115 383 -64
2021-12-07 01:37:57 GMT 21.544422 -158.552353 25,025 115 380 64
2021-12-07 01:37:50 GMT 21.549500 -158.563782 25,025 115 377 64
2021-12-07 01:37:46 GMT 21.552658 -158.571014 25,025 115 373 0
2021-12-07 01:37:40 GMT 21.557037 -158.580826 25,025 115 368 -64
2021-12-07 01:37:34 GMT 21.561647 -158.591156 25,025 115 362 0
2021-12-07 01:37:30 GMT 21.564835 -158.598282 25,025 115 359 0
2021-12-07 01:37:21 GMT 21.571377 -158.612976 25,025 115 351 64
2021-12-07 01:37:11 GMT 21.578173 -158.628540 25,025 115 342 0
2021-12-07 01:37:01 GMT 21.585342 -158.644821 25,000 115 341 448
2021-12-07 01:36:49 GMT 21.592138 -158.660278 24,825 115 338 1472
2021-12-07 01:36:39 GMT 21.599487 -158.676880 24,575 115 335 1088
2021-12-07 01:36:30 GMT 21.605684 -158.690994 24,375 115 331 1472
2021-12-07 01:36:20 GMT 21.612062 -158.705444 24,150 115 331 1152
2021-12-07 01:36:18 GMT 21.613083 -158.707642 24,125 115 331 1216
2021-12-07 01:36:10 GMT 21.618668 -158.720230 23,925 115 328 1600
2021-12-07 01:36:08 GMT 21.619604 -158.722427 23,875 115 328 1728
2021-12-07 01:35:59 GMT 21.625517 -158.735657 23,600 115 327 1792
2021-12-07 01:35:57 GMT 21.626865 -158.738708 23,525 115 327 1728
2021-12-07 01:35:49 GMT 21.632034 -158.750443 23,275 115 325 1856
2021-12-07 01:35:46 GMT 21.633802 -158.754578 23,200 115 325 1920
2021-12-07 01:35:38 GMT 21.638992 -158.766418 22,925 115 325 2176
2021-12-07 01:35:36 GMT 21.640640 -158.770065 22,825 115 326 2240
2021-12-07 01:35:28 GMT 21.645264 -158.780655 22,550 114 327 2240
2021-12-07 01:35:25 GMT 21.647675 -158.786270 22,425 114 328 2304
2021-12-07 01:35:19 GMT 21.651678 -158.795425 22,200 115 328 1856
2021-12-07 01:35:14 GMT 21.654510 -158.801926 22,100 114 327 1344
2021-12-07 01:35:07 GMT 21.659407 -158.813217 21,925 114 324 1280
2021-12-07 01:35:03 GMT 21.661501 -158.818054 21,850 114 322 1472
2021-12-07 01:34:52 GMT 21.668251 -158.833466 21,575 115 318 1472
2021-12-07 01:34:41 GMT 21.675095 -158.848831 21,300 115 314 1600
2021-12-07 01:34:31 GMT 21.681519 -158.863449 20,900 115 313 3008
2021-12-07 01:34:19 GMT 21.689060 -158.880508 20,325 115 319 2560
2021-12-07 01:34:09 GMT 21.695297 -158.894699 20,000 115 318 1856
2021-12-07 01:33:58 GMT 21.702072 -158.909943 19,725 115 314 1408
2021-12-07 01:33:47 GMT 21.709122 -158.925781 19,400 115 309 1792
2021-12-07 01:33:37 GMT 21.715622 -158.940613 19,025 115 306 2496
2021-12-07 01:33:25 GMT 21.722534 -158.956345 18,575 115 305 2112
2021-12-07 01:33:15 GMT 21.728863 -158.970688 18,125 115 303 2944
2021-12-07 01:33:04 GMT 21.735397 -158.985245 17,600 115 305 3008
2021-12-07 01:32:54 GMT 21.741804 -158.999481 17,150 115 305 2112
2021-12-07 01:32:42 GMT 21.748926 -159.015350 16,800 115 298 1920
2021-12-07 01:32:32 GMT 21.754944 -159.028595 16,400 115 294 2624
2021-12-07 01:32:21 GMT 21.761353 -159.042786 15,975 115 291 2496
2021-12-07 01:32:18 GMT 21.763823 -159.048203 15,775 116 288 3008
2021-12-07 01:32:10 GMT 21.767761 -159.056870 15,425 116 287 3072
2021-12-07 01:32:00 GMT 21.773895 -159.070343 14,800 115 288 3904
2021-12-07 01:31:49 GMT 21.780304 -159.084473 14,150 115 291 3392
2021-12-07 01:31:46 GMT 21.782677 -159.089661 13,900 115 291 3456
2021-12-07 01:31:38 GMT 21.786587 -159.098251 13,500 115 292 4032

Making use of Plane Finder data

You are free to use the raw flight data, aircraft information and images provided in this report for your own purposes provided the data is correctly attributed to Plane Finder. We ask that you please credit Plane Finder and link to planefinder.net in close proximity to the content.

Optionally one of the following logos (no smaller then 150x24px) can be used and must link to planefinder.net

Embedding the Plane Finder map

You are welcome to embed the Plane Finder playback map on your website to offer visitors a more interactive experience. We suggest using the following HTML code:

<iframe src="//planefinder.net/data/report/HA340-N492HA-7700-squawk-2021-12-07/map" width="800" height="600" seamless="seamless"></iframe>

Where our data comes from

Plane Finder has a global network of data feeds and antenna radars that receive data broadcast directly from aircraft. The primary technologies used are ADS-B and MLAT. We also show feeds from the FAA and a FLARM glider feed.

Click here to find out more about the Plane Finder network.

How we collect our data